sensor_id;sensor_type;location;lat;lon;timestamp;temperature;humidity
13470;DHT22;6807;48.682;9.032;2022-12-17T00:01:00;-6.70;9.50
13470;DHT22;6807;48.682;9.032;2022-12-17T00:03:45;-6.90;14.70
13470;DHT22;6807;48.682;9.032;2022-12-17T00:06:29;-6.80;19.80
13470;DHT22;6807;48.682;9.032;2022-12-17T00:09:14;-7.00;19.50
13470;DHT22;6807;48.682;9.032;2022-12-17T00:11:58;-7.10;29.10
13470;DHT22;6807;48.682;9.032;2022-12-17T00:14:44;-7.30;24.70
13470;DHT22;6807;48.682;9.032;2022-12-17T00:17:30;-7.40;30.10
13470;DHT22;6807;48.682;9.032;2022-12-17T00:20:14;-7.50;19.40
13470;DHT22;6807;48.682;9.032;2022-12-17T00:22:59;-7.50;36.50
13470;DHT22;6807;48.682;9.032;2022-12-17T00:25:48;-7.60;52.30
13470;DHT22;6807;48.682;9.032;2022-12-17T00:28:32;-7.60;53.50
13470;DHT22;6807;48.682;9.032;2022-12-17T00:31:17;-7.60;56.60
13470;DHT22;6807;48.682;9.032;2022-12-17T00:34:02;-7.70;61.20
13470;DHT22;6807;48.682;9.032;2022-12-17T00:36:46;-7.80;51.80
13470;DHT22;6807;48.682;9.032;2022-12-17T00:39:30;-7.80;62.10
13470;DHT22;6807;48.682;9.032;2022-12-17T00:42:15;-7.80;61.00
13470;DHT22;6807;48.682;9.032;2022-12-17T00:44:59;-5.70;70.60
13470;DHT22;6807;48.682;9.032;2022-12-17T00:47:44;-7.60;91.70
13470;DHT22;6807;48.682;9.032;2022-12-17T00:50:29;-7.80;94.30
13470;DHT22;6807;48.682;9.032;2022-12-17T00:53:14;-8.00;66.30
13470;DHT22;6807;48.682;9.032;2022-12-17T00:55:58;-7.00;68.00
13470;DHT22;6807;48.682;9.032;2022-12-17T00:58:43;-8.20;56.50
13470;DHT22;6807;48.682;9.032;2022-12-17T01:01:27;-7.80;85.40
13470;DHT22;6807;48.682;9.032;2022-12-17T01:04:08;-8.30;61.10
13470;DHT22;6807;48.682;9.032;2022-12-17T01:06:50;-7.70;75.40
13470;DHT22;6807;48.682;9.032;2022-12-17T01:09:35;-7.40;82.10
13470;DHT22;6807;48.682;9.032;2022-12-17T01:12:19;-8.40;64.20
13470;DHT22;6807;48.682;9.032;2022-12-17T01:15:04;-8.40;54.60
13470;DHT22;6807;48.682;9.032;2022-12-17T01:17:49;-8.50;47.70
13470;DHT22;6807;48.682;9.032;2022-12-17T01:20:34;-8.60;56.50
13470;DHT22;6807;48.682;9.032;2022-12-17T01:23:19;-8.70;42.10
13470;DHT22;6807;48.682;9.032;2022-12-17T01:26:04;-7.60;51.20
13470;DHT22;6807;48.682;9.032;2022-12-17T01:28:49;-8.80;26.50
13470;DHT22;6807;48.682;9.032;2022-12-17T01:31:33;-8.80;40.40
13470;DHT22;6807;48.682;9.032;2022-12-17T01:34:18;-7.00;62.10
13470;DHT22;6807;48.682;9.032;2022-12-17T01:37:02;-8.80;56.00
13470;DHT22;6807;48.682;9.032;2022-12-17T01:39:48;-8.70;45.50
13470;DHT22;6807;48.682;9.032;2022-12-17T01:42:37;-8.90;53.90
13470;DHT22;6807;48.682;9.032;2022-12-17T01:45:21;-8.90;58.60
13470;DHT22;6807;48.682;9.032;2022-12-17T01:48:12;-8.90;64.50
13470;DHT22;6807;48.682;9.032;2022-12-17T01:51:09;-9.00;49.50
13470;DHT22;6807;48.682;9.032;2022-12-17T01:53:54;-9.00;50.70
13470;DHT22;6807;48.682;9.032;2022-12-17T01:56:41;-8.30;36.20
13470;DHT22;6807;48.682;9.032;2022-12-17T01:59:35;-8.70;29.60
13470;DHT22;6807;48.682;9.032;2022-12-17T02:02:20;-9.10;46.40
13470;DHT22;6807;48.682;9.032;2022-12-17T02:05:05;-8.60;46.10
13470;DHT22;6807;48.682;9.032;2022-12-17T02:07:59;-9.20;51.40
13470;DHT22;6807;48.682;9.032;2022-12-17T02:10:53;-9.10;62.90
13470;DHT22;6807;48.682;9.032;2022-12-17T02:13:48;-9.10;55.70
13470;DHT22;6807;48.682;9.032;2022-12-17T02:25:17;-9.20;1.00
13470;DHT22;6807;48.682;9.032;2022-12-17T10:00:21;-4.90;99.90
13470;DHT22;6807;48.682;9.032;2022-12-17T10:31:07;-4.40;99.90
13470;DHT22;6807;48.682;9.032;2022-12-17T11:13:27;-3.90;99.90
13470;DHT22;6807;48.682;9.032;2022-12-17T11:25:01;-3.60;99.90
13470;DHT22;6807;48.682;9.032;2022-12-17T11:36:35;-2.40;99.90
13470;DHT22;6807;48.682;9.032;2022-12-17T11:45:28;-0.60;99.90
13470;DHT22;6807;48.682;9.032;2022-12-17T12:14:37;2.80;1.00
13470;DHT22;6807;48.682;9.032;2022-12-17T12:17:44;1.00;1.00
13470;DHT22;6807;48.682;9.032;2022-12-17T12:35:32;2.20;1.00
13470;DHT22;6807;48.682;9.032;2022-12-17T12:38:29;2.60;1.00
13470;DHT22;6807;48.682;9.032;2022-12-17T12:41:19;1.80;1.00
13470;DHT22;6807;48.682;9.032;2022-12-17T12:44:15;1.80;1.00
13470;DHT22;6807;48.682;9.032;2022-12-17T12:47:05;1.50;1.00
13470;DHT22;6807;48.682;9.032;2022-12-17T12:50:09;1.10;1.00
13470;DHT22;6807;48.682;9.032;2022-12-17T12:52:58;0.80;1.00
13470;DHT22;6807;48.682;9.032;2022-12-17T12:55:43;0.80;1.00
13470;DHT22;6807;48.682;9.032;2022-12-17T12:58:37;0.20;1.00
13470;DHT22;6807;48.682;9.032;2022-12-17T13:01:31;-0.80;1.00
13470;DHT22;6807;48.682;9.032;2022-12-17T13:04:27;-1.90;1.00
13470;DHT22;6807;48.682;9.032;2022-12-17T13:07:25;-2.20;1.00
13470;DHT22;6807;48.682;9.032;2022-12-17T13:09:57;-2.80;1.00
13470;DHT22;6807;48.682;9.032;2022-12-17T13:13:16;-4.00;1.00
13470;DHT22;6807;48.682;9.032;2022-12-17T13:22:27;-3.70;1.00
13470;DHT22;6807;48.682;9.032;2022-12-17T13:25:12;-3.70;1.00
13470;DHT22;6807;48.682;9.032;2022-12-17T13:27:41;-3.80;1.00
13470;DHT22;6807;48.682;9.032;2022-12-17T13:30:20;-3.70;1.00
13470;DHT22;6807;48.682;9.032;2022-12-17T13:32:55;-3.70;1.00
13470;DHT22;6807;48.682;9.032;2022-12-17T13:35:32;-3.70;1.00
13470;DHT22;6807;48.682;9.032;2022-12-17T13:38:09;-3.30;1.00
13470;DHT22;6807;48.682;9.032;2022-12-17T13:40:44;-3.80;1.00
13470;DHT22;6807;48.682;9.032;2022-12-17T13:43:17;-2.80;1.00
13470;DHT22;6807;48.682;9.032;2022-12-17T13:45:50;-3.70;1.00
13470;DHT22;6807;48.682;9.032;2022-12-17T13:48:19;-3.60;1.00
13470;DHT22;6807;48.682;9.032;2022-12-17T13:50:53;-3.60;1.00
13470;DHT22;6807;48.682;9.032;2022-12-17T13:53:21;-3.60;1.00
13470;DHT22;6807;48.682;9.032;2022-12-17T13:55:55;-3.70;1.00
13470;DHT22;6807;48.682;9.032;2022-12-17T13:58:24;-3.90;1.00
13470;DHT22;6807;48.682;9.032;2022-12-17T14:01:05;-3.40;1.00
13470;DHT22;6807;48.682;9.032;2022-12-17T14:03:33;-4.00;1.00
13470;DHT22;6807;48.682;9.032;2022-12-17T14:06:00;-3.70;1.00
13470;DHT22;6807;48.682;9.032;2022-12-17T14:08:30;-3.80;1.00
13470;DHT22;6807;48.682;9.032;2022-12-17T14:11:02;-3.70;1.00
13470;DHT22;6807;48.682;9.032;2022-12-17T14:13:48;-3.90;1.00
13470;DHT22;6807;48.682;9.032;2022-12-17T14:16:16;-4.30;1.00
13470;DHT22;6807;48.682;9.032;2022-12-17T14:18:48;-4.50;1.00
13470;DHT22;6807;48.682;9.032;2022-12-17T14:21:16;-4.70;1.00
13470;DHT22;6807;48.682;9.032;2022-12-17T14:23:53;-4.70;1.00
13470;DHT22;6807;48.682;9.032;2022-12-17T14:26:30;-4.70;1.00
13470;DHT22;6807;48.682;9.032;2022-12-17T14:29:45;-4.80;1.00
13470;DHT22;6807;48.682;9.032;2022-12-17T14:32:32;-4.70;1.00
13470;DHT22;6807;48.682;9.032;2022-12-17T14:35:03;-4.50;1.00
13470;DHT22;6807;48.682;9.032;2022-12-17T14:37:31;-4.80;1.00
13470;DHT22;6807;48.682;9.032;2022-12-17T14:40:03;-4.60;1.00
13470;DHT22;6807;48.682;9.032;2022-12-17T14:42:43;-4.80;1.00
13470;DHT22;6807;48.682;9.032;2022-12-17T14:45:47;-4.20;1.00
13470;DHT22;6807;48.682;9.032;2022-12-17T14:48:30;-4.00;1.00
13470;DHT22;6807;48.682;9.032;2022-12-17T14:51:27;-4.20;1.00
13470;DHT22;6807;48.682;9.032;2022-12-17T14:54:20;-2.00;1.00
13470;DHT22;6807;48.682;9.032;2022-12-17T14:56:56;-2.60;1.00
13470;DHT22;6807;48.682;9.032;2022-12-17T14:59:44;-3.80;1.00
13470;DHT22;6807;48.682;9.032;2022-12-17T15:02:19;-4.90;1.00
13470;DHT22;6807;48.682;9.032;2022-12-17T15:04:52;-2.80;1.00
13470;DHT22;6807;48.682;9.032;2022-12-17T15:07:25;-5.20;1.00
13470;DHT22;6807;48.682;9.032;2022-12-17T15:09:54;-5.40;1.00
13470;DHT22;6807;48.682;9.032;2022-12-17T15:12:23;-5.40;1.00
13470;DHT22;6807;48.682;9.032;2022-12-17T15:14:51;-5.20;1.00
13470;DHT22;6807;48.682;9.032;2022-12-17T15:17:18;-5.80;1.00
13470;DHT22;6807;48.682;9.032;2022-12-17T15:19:45;-6.00;1.00
13470;DHT22;6807;48.682;9.032;2022-12-17T15:22:16;-6.20;1.00
13470;DHT22;6807;48.682;9.032;2022-12-17T15:24:44;-5.30;1.00
13470;DHT22;6807;48.682;9.032;2022-12-17T15:27:12;-6.50;1.00
13470;DHT22;6807;48.682;9.032;2022-12-17T15:29:39;-5.50;8.00
13470;DHT22;6807;48.682;9.032;2022-12-17T21:36:32;-10.80;99.90
13470;DHT22;6807;48.682;9.032;2022-12-17T22:16:30;-11.20;99.90
13470;DHT22;6807;48.682;9.032;2022-12-17T23:21:20;-11.70;99.90
